CYAW/YAW METAR and TAF weather

Enter ICAO airport designator
Station Type Date Time Source
CYAW METAR 2019/04/25 19:00 UTC NOAA

CYAW 251900Z 32016G21KT 15SM OVC021 06/02 A2979 RMK SC8 DA-654FT LAST OBS/NEXT 260900 UTC SLP091


Station Type Date Time Source
CYAW Decoded METAR 2019/04/25 19:00 UTC NOAA

Shearwater, N. S., Canada (CYAW) 44-38N 063-30W 51M
Apr 25, 2019 - 03:00 PM EDT / 2019.04.25 1900 UTC
Wind: from the NW (320 degrees) at 18 MPH (16 KT) gusting to 24 MPH (21 KT):0
Visibility: 15 mile(s):0
Sky conditions: overcast
Temperature: 42 F (6 C)
Dew Point: 35 F (2 C)
Relative Humidity: 75%
Pressure (altimeter): 29.79 in. Hg (1008 hPa)
ob: CYAW 251900Z 32016G21KT 15SM OVC021 06/02 A2979 RMK SC8 DA-654FT LAST OBS/NEXT 260900 UTC SLP091
cycle: 19

Station Type Date Time Source
CYAW TAF 2019/04/25 18:40 UTC NOAA

TAF CYAW 251735Z 2518/2606 32015G25KT P6SM OVC015
TEMPO 2518/2606 BKN025
BECMG 2523/2601 32010G20KT
RMK NXT FCST BY 260000Z

Example: see airport list